Terminal Aerodrome Forecast
Issued by NWS

Home | Current Version | Previous Version | Text Only | Print | Product List | Glossary On
Versions: 1 2 3 4 5 6 7 8 9 10 11 12 13
000
FTUS46 KPDT 062320
TAFALW
TAF
KALW 062320Z 0700/0724 28007KT P6SM VCSH BKN100
     FM070300 15007KT P6SM VCSH BKN080 OVC100
     FM071500 20007KT P6SM SCT050 BKN100
     FM072000 03007KT P6SM SCT100=

USA.gov is the U.S. government's official web portal to all federal, state and local government web resources and services.